Time;durP1;ratioP1;P1;durP2;ratioP2;P2;SDS_P1;SDS_P2;PMS_P1;PMS_P2;Temp;Humidity;BMP_temperature;BMP_pressure;BME280_temperature;BME280_humidity;BME280_pressure;Samples;Min_cycle;Max_cycle;Signal;HPM_P1;HPM_P2
2022/06/20 00:00:58;;;;;;;11.82;3.30;;;;;;;16.64;53.63;101496.91;5238514;28;20406;-54
2022/06/20 00:03:36;;;;;;;20.63;4.15;;;;;;;16.71;53.82;101513.06;5234786;28;20889;-48
2022/06/20 00:06:15;;;;;;;15.73;4.60;;;;;;;16.56;53.55;101516.44;5239668;28;20896;-49
2022/06/20 00:08:51;;;;;;;16.98;3.38;;;;;;;16.48;53.94;101497.00;5237641;28;20452;-54
2022/06/20 00:11:28;;;;;;;16.30;3.75;;;;;;;16.53;53.97;101508.78;5237286;28;20417;-49
2022/06/20 00:14:01;;;;;;;13.95;3.00;;;;;;;16.60;54.15;101538.28;5230152;28;20875;-51
2022/06/20 00:16:35;;;;;;;12.82;3.13;;;;;;;16.54;53.97;101526.47;5241371;28;20494;-53
2022/06/20 00:19:09;;;;;;;11.02;3.22;;;;;;;16.58;54.01;101527.78;5236108;28;20406;-55
2022/06/20 00:21:42;;;;;;;10.60;3.42;;;;;;;16.55;54.12;101530.78;5238909;28;20902;-52
2022/06/20 00:24:16;;;;;;;18.45;3.15;;;;;;;16.43;54.05;101507.34;5235289;28;20430;-53
2022/06/20 00:26:48;;;;;;;10.93;2.80;;;;;;;16.51;53.85;101513.47;5239469;28;20919;-52
2022/06/20 00:29:20;;;;;;;12.38;3.00;;;;;;;16.56;54.07;101527.09;5233452;28;20468;-51
2022/06/20 00:31:53;;;;;;;11.00;3.47;;;;;;;16.29;54.22;101493.72;5221331;28;20598;-51
2022/06/20 00:34:25;;;;;;;13.95;3.40;;;;;;;16.21;54.33;101498.25;5236162;28;20508;-50
2022/06/20 00:36:58;;;;;;;8.52;2.75;;;;;;;16.47;54.33;101538.78;5234068;28;20440;-51
2022/06/20 00:39:32;;;;;;;7.90;3.03;;;;;;;16.45;54.32;101546.16;5236768;28;20494;-49
2022/06/20 00:42:05;;;;;;;10.60;2.60;;;;;;;16.49;54.38;101558.13;5237111;28;20943;-51
2022/06/20 00:44:43;;;;;;;9.05;3.00;;;;;;;16.36;54.38;101531.19;5237621;28;20505;-52
2022/06/20 00:47:20;;;;;;;8.37;3.07;;;;;;;16.55;54.31;101554.78;5238447;28;20479;-48
2022/06/20 00:50:03;;;;;;;11.95;2.47;;;;;;;16.52;54.35;101546.31;5235108;28;20961;-50
2022/06/20 00:52:41;;;;;;;11.80;3.03;;;;;;;15.95;54.38;101483.31;5230816;28;20406;-52
2022/06/20 00:55:22;;;;;;;11.48;2.72;;;;;;;16.54;54.18;101571.78;5232987;28;21795;-51
2022/06/20 00:58:01;;;;;;;12.70;2.60;;;;;;;16.51;54.69;101564.13;5236506;28;20431;-51
2022/06/20 01:00:38;;;;;;;9.80;2.70;;;;;;;16.35;54.67;101540.16;5234469;28;20418;-50
2022/06/20 01:03:17;;;;;;;13.75;3.15;;;;;;;16.48;54.40;101558.31;5246377;28;20437;-51
2022/06/20 01:05:54;;;;;;;10.80;2.60;;;;;;;16.48;54.58;101553.81;5240403;28;20497;-51
2022/06/20 01:08:30;;;;;;;10.70;2.58;;;;;;;16.31;54.28;101555.66;5210988;28;20467;-56
2022/06/20 01:11:12;;;;;;;18.70;3.30;;;;;;;16.49;54.49;101562.63;5239618;28;20410;-51
2022/06/20 01:13:45;;;;;;;9.25;2.47;;;;;;;16.45;54.55;101567.47;5242717;28;20859;-51
2022/06/20 01:16:26;;;;;;;8.82;2.58;;;;;;;16.38;54.50;101558.47;5239469;28;20398;-51
2022/06/20 01:19:02;;;;;;;8.10;2.40;;;;;;;16.17;54.20;101523.56;5239829;28;20424;-48
2022/06/20 01:21:36;;;;;;;10.48;2.33;;;;;;;16.38;54.26;101566.47;5237381;28;20465;-51
2022/06/20 01:24:23;;;;;;;9.73;2.78;;;;;;;16.33;54.26;101560.84;5241833;28;20530;-50
2022/06/20 01:27:16;;;;;;;7.93;2.53;;;;;;;16.34;54.30;101583.81;5236821;28;20485;-54
2022/06/20 01:29:48;;;;;;;10.98;3.13;;;;;;;16.32;54.25;101604.47;5239729;28;20499;-51
2022/06/20 01:32:21;;;;;;;13.50;3.05;;;;;;;16.31;54.10;101603.66;5240523;28;20444;-49
2022/06/20 01:34:53;;;;;;;12.30;3.90;;;;;;;16.14;54.17;101584.19;5237044;28;20978;-51
2022/06/20 01:37:26;;;;;;;10.13;2.67;;;;;;;16.28;54.05;101619.16;5226237;28;20411;-51
2022/06/20 01:40:09;;;;;;;8.18;2.88;;;;;;;16.06;54.04;101592.19;5239282;28;20830;-52
2022/06/20 01:42:43;;;;;;;14.70;2.90;;;;;;;16.10;54.06;101614.84;5241784;28;20513;-48
2022/06/20 01:48:10;;;;;;;10.15;2.40;;;;;;;15.98;53.96;101594.00;5231447;28;20411;-52
2022/06/20 01:50:45;;;;;;;10.02;2.65;;;;;;;16.21;53.89;101620.84;5241072;28;20550;-51
2022/06/20 01:53:24;;;;;;;10.75;2.92;;;;;;;16.20;54.03;101621.84;5240913;28;20726;-52
2022/06/20 01:55:57;;;;;;;9.95;3.00;;;;;;;16.18;53.96;101629.16;5240077;28;20417;-47
2022/06/20 01:58:36;;;;;;;8.20;2.47;;;;;;;16.19;54.17;101622.81;5235326;28;20418;-50
2022/06/20 02:01:09;;;;;;;9.35;2.70;;;;;;;16.02;53.98;101601.53;5245726;28;20846;-51
2022/06/20 02:03:45;;;;;;;11.32;2.60;;;;;;;16.11;54.15;101613.00;5242215;28;20414;-48
2022/06/20 02:06:19;;;;;;;11.80;3.00;;;;;;;15.89;53.98;101601.19;5242209;28;20418;-50
2022/06/20 02:08:58;;;;;;;11.77;2.80;;;;;;;16.08;54.36;101624.84;5236873;28;20403;-53
2022/06/20 02:11:36;;;;;;;8.65;2.40;;;;;;;16.05;54.20;101611.84;5237472;28;20414;-50
2022/06/20 02:14:14;;;;;;;4.57;1.85;;;;;;;15.93;54.05;101596.38;5240820;28;20686;-56
2022/06/20 02:16:52;;;;;;;8.55;2.85;;;;;;;15.98;54.17;101597.53;5242501;28;22018;-55
2022/06/20 02:19:29;;;;;;;7.53;2.83;;;;;;;15.93;54.23;101591.88;5238003;28;20483;-57
2022/06/20 02:22:07;;;;;;;11.02;2.70;;;;;;;15.39;54.31;101517.75;5235206;28;20501;-52
2022/06/20 02:24:45;;;;;;;6.53;2.65;;;;;;;15.78;54.40;101558.91;5237339;28;20978;-54
2022/06/20 02:27:24;;;;;;;14.05;3.38;;;;;;;15.85;54.41;101570.53;5244919;28;20417;-49
2022/06/20 02:30:01;;;;;;;14.85;2.90;;;;;;;15.22;54.47;101468.97;5231023;28;20469;-53
2022/06/20 02:32:38;;;;;;;10.82;3.20;;;;;;;15.79;54.55;101571.19;5239632;28;20445;-51
2022/06/20 02:35:15;;;;;;;8.40;2.93;;;;;;;15.70;54.58;101561.53;5237946;28;20435;-49
2022/06/20 02:37:48;;;;;;;11.27;3.13;;;;;;;15.72;54.64;101576.38;5217070;28;20527;-47
2022/06/20 02:40:25;;;;;;;10.35;3.13;;;;;;;15.62;54.77;101565.84;5238747;28;20407;-50
2022/06/20 02:43:05;;;;;;;10.48;3.03;;;;;;;15.61;54.85;101574.84;5239271;28;20402;-53
2022/06/20 02:45:40;;;;;;;10.18;3.05;;;;;;;15.45;55.14;101602.28;5238649;28;20417;-49
2022/06/20 02:48:15;;;;;;;13.13;3.17;;;;;;;15.40;54.96;101555.84;5242299;28;20433;-48
2022/06/20 02:50:52;;;;;;;9.98;2.92;;;;;;;15.41;55.18;101562.81;5234470;28;20716;-51
2022/06/20 02:53:28;;;;;;;16.92;3.88;;;;;;;15.23;55.13;101547.81;5233094;28;20456;-50
2022/06/20 02:56:01;;;;;;;12.75;3.80;;;;;;;15.38;55.18;101565.81;5222995;28;20900;-50
2022/06/20 02:58:39;;;;;;;9.98;3.55;;;;;;;15.39;55.45;101570.97;5239408;28;20410;-51
2022/06/20 03:01:19;;;;;;;13.13;4.13;;;;;;;15.36;55.29;101565.97;5237954;28;20914;-49
2022/06/20 03:03:55;;;;;;;12.70;3.95;;;;;;;15.30;55.36;101560.44;5235902;28;20413;-51
2022/06/20 03:06:32;;;;;;;11.20;3.97;;;;;;;15.26;55.53;101548.47;5234793;28;20413;-54
2022/06/20 03:09:05;;;;;;;15.07;3.88;;;;;;;15.31;55.50;101556.81;5235942;28;20524;-51
2022/06/20 03:11:39;;;;;;;16.83;3.50;;;;;;;15.28;55.55;101557.16;5241977;28;20848;-48
2022/06/20 03:14:15;;;;;;;15.40;4.40;;;;;;;15.17;55.65;101540.50;5236566;28;20848;-52
2022/06/20 03:16:49;;;;;;;13.37;3.77;;;;;;;15.14;55.44;101546.16;5235573;28;20412;-49
2022/06/20 03:19:31;;;;;;;14.50;3.95;;;;;;;15.14;55.73;101543.47;5237619;28;20422;-50
2022/06/20 03:22:10;;;;;;;18.30;4.10;;;;;;;15.16;55.73;101554.78;5233167;28;20454;-48
2022/06/20 03:24:43;;;;;;;16.02;4.55;;;;;;;15.01;55.87;101534.28;5240985;28;20515;-49
2022/06/20 03:27:24;;;;;;;13.95;4.32;;;;;;;15.10;55.98;101544.78;5237131;28;20794;-51
2022/06/20 03:30:05;;;;;;;13.13;3.97;;;;;;;15.06;56.10;101546.13;5237012;28;20402;-41
2022/06/20 03:32:39;;;;;;;10.57;3.83;;;;;;;15.06;56.12;101554.09;5238026;28;20418;-49
2022/06/20 03:35:12;;;;;;;13.50;4.82;;;;;;;14.85;56.15;101521.78;5239838;28;20420;-51
2022/06/20 03:37:45;;;;;;;11.23;4.43;;;;;;;14.81;56.15;101517.78;5242939;28;20427;-49
2022/06/20 03:40:18;;;;;;;14.18;4.30;;;;;;;15.06;56.33;101564.72;5240687;28;20501;-53
2022/06/20 03:42:53;;;;;;;15.38;5.10;;;;;;;14.99;56.29;101542.44;5240391;28;20482;-50
2022/06/20 03:45:35;;;;;;;12.77;4.53;;;;;;;15.07;56.23;101550.44;5245083;28;20416;-50
2022/06/20 03:48:13;;;;;;;13.45;3.90;;;;;;;15.01;56.41;101539.59;5237183;28;20425;-50
2022/06/20 03:50:53;;;;;;;9.88;3.72;;;;;;;15.08;56.21;101560.09;5241106;28;20788;-50
2022/06/20 03:53:33;;;;;;;17.15;4.10;;;;;;;15.08;56.44;101552.13;5239323;28;20419;-47
2022/06/20 03:56:13;;;;;;;18.88;5.03;;;;;;;15.02;56.45;101539.47;5237217;28;20451;-48
2022/06/20 03:58:50;;;;;;;15.77;3.73;;;;;;;15.07;56.54;101545.09;5235275;28;20408;-49
2022/06/20 04:01:28;;;;;;;15.88;4.43;;;;;;;15.09;56.55;101542.31;5236445;28;20513;-52
2022/06/20 04:04:06;;;;;;;15.07;4.00;;;;;;;15.12;56.62;101548.13;5238221;28;20408;-50
2022/06/20 04:06:45;;;;;;;15.73;4.22;;;;;;;15.15;56.65;101558.44;5240122;28;21044;-49
2022/06/20 04:12:25;;;;;;;11.60;3.97;;;;;;;15.20;56.65;101545.47;5237106;28;20865;-52
2022/06/20 04:15:02;;;;;;;16.20;4.10;;;;;;;15.04;56.67;101502.88;5243661;28;20495;-45
2022/06/20 04:20:43;;;;;;;12.88;3.95;;;;;;;15.27;56.70;101536.84;5237064;28;20566;-49
2022/06/20 04:23:21;;;;;;;16.45;5.03;;;;;;;15.30;56.67;101541.81;5237354;28;20429;-51
2022/06/20 04:25:57;;;;;;;13.48;3.83;;;;;;;15.43;56.78;101563.50;5231943;28;20442;-49
2022/06/20 04:28:39;;;;;;;12.00;3.83;;;;;;;15.41;56.70;101554.84;5235343;28;20413;-48
2022/06/20 04:31:19;;;;;;;14.67;4.40;;;;;;;15.53;56.64;101566.00;5238050;28;20518;-49
2022/06/20 04:34:02;;;;;;;15.68;3.72;;;;;;;15.51;56.71;101554.69;5244543;28;20423;-47
2022/06/20 04:36:41;;;;;;;13.68;4.45;;;;;;;15.54;56.62;101557.84;5241600;28;20513;-48
2022/06/20 04:39:20;;;;;;;11.90;3.50;;;;;;;15.58;56.69;101567.19;5242304;28;20507;-52
2022/06/20 04:42:01;;;;;;;12.07;3.72;;;;;;;15.61;56.60;101569.50;5246421;28;20410;-53
2022/06/20 04:44:46;;;;;;;15.88;4.30;;;;;;;15.64;56.56;101571.03;5229257;28;20418;-49
2022/06/20 04:47:33;;;;;;;14.93;4.47;;;;;;;15.73;56.34;101571.88;5242244;28;20808;-51
2022/06/20 04:50:07;;;;;;;11.63;4.05;;;;;;;15.79;56.37;101571.19;5243662;28;20417;-49
2022/06/20 04:52:41;;;;;;;14.38;4.65;;;;;;;15.83;56.28;101572.56;5242274;28;20946;-49
2022/06/20 04:55:17;;;;;;;15.10;4.35;;;;;;;15.91;56.23;101591.19;5245868;28;20435;-48
2022/06/20 04:57:51;;;;;;;13.67;4.70;;;;;;;15.95;56.32;101581.88;5241568;28;20392;-50
2022/06/20 05:00:29;;;;;;;12.70;4.13;;;;;;;15.97;56.16;101557.72;5239906;28;20504;-51
2022/06/20 05:03:02;;;;;;;11.80;4.47;;;;;;;16.12;56.06;101575.53;5241082;28;20835;-56
2022/06/20 05:05:46;;;;;;;16.88;4.75;;;;;;;16.40;55.75;101575.16;5239378;28;20506;-56
2022/06/20 05:08:26;;;;;;;14.18;4.85;;;;;;;17.34;54.58;101554.75;5235239;28;20422;-56
2022/06/20 05:11:05;;;;;;;13.80;4.00;;;;;;;19.02;53.25;101568.75;5245720;28;20501;-57
2022/06/20 05:13:46;;;;;;;10.77;3.67;;;;;;;20.62;51.54;101567.47;5240832;28;20898;-52
2022/06/20 05:16:24;;;;;;;11.88;3.67;;;;;;;22.02;49.86;101561.47;5238882;28;20469;-53
2022/06/20 05:19:01;;;;;;;14.85;3.95;;;;;;;23.19;48.44;101551.59;5235814;28;20473;-50
2022/06/20 05:21:38;;;;;;;7.60;2.78;;;;;;;24.34;47.05;101564.00;5234453;28;20464;-54
2022/06/20 05:24:16;;;;;;;7.22;3.00;;;;;;;25.57;45.62;101579.09;5228231;28;20424;-54
2022/06/20 05:26:52;;;;;;;13.73;3.80;;;;;;;26.66;44.07;101576.84;5244116;28;20417;-51
2022/06/20 05:29:29;;;;;;;7.03;2.35;;;;;;;27.68;42.57;101577.94;5241186;28;20955;-55
2022/06/20 05:32:07;;;;;;;10.18;3.45;;;;;;;28.35;41.67;101571.66;5240061;28;20517;-52
2022/06/20 05:34:46;;;;;;;6.47;2.72;;;;;;;28.64;40.98;101583.19;5240478;28;20893;-53
2022/06/20 05:37:28;;;;;;;9.20;2.80;;;;;;;28.79;40.56;101587.19;5234733;28;20495;-51
2022/06/20 05:40:12;;;;;;;10.23;2.93;;;;;;;29.58;39.63;101583.97;5235325;28;20546;-52
2022/06/20 05:42:44;;;;;;;9.10;2.60;;;;;;;30.28;38.28;101591.06;5238140;28;20425;-51
2022/06/20 05:45:21;;;;;;;11.50;2.63;;;;;;;30.55;37.73;101587.38;5239041;28;20465;-52
2022/06/20 05:47:58;;;;;;;11.15;2.13;;;;;;;30.86;37.16;101593.00;5242538;28;20406;-54
2022/06/20 05:50:41;;;;;;;11.85;2.80;;;;;;;30.89;36.94;101593.28;5235444;28;20420;-55
2022/06/20 05:53:24;;;;;;;7.38;2.47;;;;;;;30.94;36.47;101595.19;5242187;28;20398;-49
2022/06/20 05:56:00;;;;;;;9.80;2.58;;;;;;;30.78;35.99;101597.03;5240023;28;20417;-44
2022/06/20 05:58:38;;;;;;;10.85;3.03;;;;;;;31.06;35.32;101598.50;5245081;28;20473;-51
2022/06/20 06:01:17;;;;;;;10.52;2.60;;;;;;;31.21;35.03;101600.44;5240429;28;20873;-51
2022/06/20 06:03:59;;;;;;;9.48;2.50;;;;;;;31.42;34.44;101595.88;5244936;28;20410;-50
2022/06/20 06:06:38;;;;;;;7.07;2.05;;;;;;;31.94;33.70;101608.47;5234554;28;20414;-50
2022/06/20 06:09:19;;;;;;;8.43;2.23;;;;;;;31.79;33.55;101612.00;5249858;28;20414;-54
2022/06/20 06:12:00;;;;;;;6.95;2.38;;;;;;;31.56;33.53;101607.06;5252804;28;20390;-53
2022/06/20 06:14:40;;;;;;;13.10;2.75;;;;;;;31.60;33.15;101598.06;5250426;28;20497;-53
2022/06/20 06:17:18;;;;;;;7.47;2.17;;;;;;;31.85;32.71;101604.63;5250027;28;20532;-51
2022/06/20 06:19:55;;;;;;;8.15;2.15;;;;;;;32.17;32.53;101606.25;5238526;28;20410;-51
2022/06/20 06:22:32;;;;;;;6.67;2.10;;;;;;;32.13;31.99;101600.53;5244160;28;20479;-51
2022/06/20 06:25:19;;;;;;;11.25;2.42;;;;;;;32.19;31.75;101593.13;5250390;28;20414;-50
2022/06/20 06:27:56;;;;;;;6.37;2.43;;;;;;;32.63;31.63;101606.16;5247717;28;20441;-51
2022/06/20 06:30:35;;;;;;;8.20;2.28;;;;;;;32.72;31.26;101610.75;5248584;28;20402;-53
2022/06/20 06:33:20;;;;;;;7.82;1.80;;;;;;;32.88;30.93;101614.22;5250921;28;20947;-51
2022/06/20 06:36:00;;;;;;;8.25;2.40;;;;;;;33.17;30.95;101624.50;5252017;28;20410;-50
2022/06/20 06:38:37;;;;;;;10.82;2.75;;;;;;;33.37;30.16;101566.06;5245551;28;20406;-52
2022/06/20 06:41:19;;;;;;;7.05;2.00;;;;;;;33.71;29.93;101579.78;5248307;28;20444;-51
2022/06/20 06:43:54;;;;;;;10.43;2.00;;;;;;;34.32;29.50;101639.50;5242100;28;20410;-55
2022/06/20 06:46:39;;;;;;;9.20;2.03;;;;;;;34.13;29.58;101633.09;5245209;28;20475;-47
2022/06/20 06:49:26;;;;;;;7.93;2.15;;;;;;;34.08;29.80;101633.19;5241128;28;20436;-51
2022/06/20 06:52:06;;;;;;;9.60;2.13;;;;;;;34.08;29.57;101609.31;5244831;28;20563;-55
2022/06/20 06:54:56;;;;;;;7.43;1.85;;;;;;;34.28;29.50;101632.13;5241712;28;20491;-52
2022/06/20 06:57:37;;;;;;;7.03;2.13;;;;;;;34.25;29.59;101639.00;5240536;28;20461;-52
2022/06/20 07:00:26;;;;;;;8.93;2.20;;;;;;;34.28;29.25;101637.63;5244331;28;20496;-53
2022/06/20 07:03:06;;;;;;;11.27;2.75;;;;;;;34.38;29.30;101637.53;5238179;28;20402;-54
2022/06/20 07:05:41;;;;;;;8.02;2.30;;;;;;;34.49;29.20;101636.28;5245887;28;20453;-53
2022/06/20 07:08:18;;;;;;;8.57;2.30;;;;;;;34.75;29.10;101649.72;5241645;28;20456;-49
2022/06/20 07:10:55;;;;;;;8.45;1.95;;;;;;;34.67;28.88;101612.78;5243068;28;20430;-52
2022/06/20 07:13:38;;;;;;;7.82;1.70;;;;;;;34.76;29.03;101632.97;5238500;28;20413;-52
2022/06/20 07:16:21;;;;;;;7.13;2.03;;;;;;;34.32;29.44;101627.72;5239714;28;20412;-53
2022/06/20 07:18:56;;;;;;;10.32;2.20;;;;;;;34.23;29.54;101635.75;5243765;28;20885;-49
2022/06/20 07:21:32;;;;;;;7.33;2.03;;;;;;;34.04;29.45;101641.16;5243641;28;20504;-53
2022/06/20 07:24:08;;;;;;;7.05;2.08;;;;;;;33.82;29.67;101649.81;5243052;28;20426;-50
2022/06/20 07:26:48;;;;;;;8.77;2.00;;;;;;;33.40;29.89;101656.66;5246636;28;20464;-49
2022/06/20 07:29:24;;;;;;;7.97;1.83;;;;;;;32.54;30.39;101658.66;5243157;28;20485;-52
2022/06/20 07:32:04;;;;;;;8.05;1.98;;;;;;;31.86;31.05;101595.31;5244433;28;20417;-46
2022/06/20 07:34:41;;;;;;;7.63;2.10;;;;;;;32.26;30.85;101648.31;5241543;28;20504;-54
2022/06/20 07:37:50;;;;;;;6.50;2.05;;;;;;;32.44;30.76;101661.44;5241130;28;20412;-50
2022/06/20 07:40:27;;;;;;;7.93;2.10;;;;;;;32.56;30.55;101659.22;5250576;28;20807;-51
2022/06/20 07:43:04;;;;;;;6.32;1.58;;;;;;;32.38;30.64;101657.03;5248646;28;20967;-49
2022/06/20 07:45:41;;;;;;;8.48;1.50;;;;;;;32.48;30.67;101667.97;5247435;28;20479;-55
2022/06/20 07:48:20;;;;;;;6.85;1.73;;;;;;;32.69;30.47;101667.94;5250878;28;20823;-52
2022/06/20 07:50:59;;;;;;;3.60;1.70;;;;;;;32.63;30.59;101663.56;5250687;28;20485;-53
2022/06/20 07:53:38;;;;;;;5.67;1.60;;;;;;;32.48;30.78;101669.91;5249024;28;20406;-52
2022/06/20 07:56:15;;;;;;;4.43;1.40;;;;;;;32.49;30.61;101663.31;5247586;28;20411;-53
2022/06/20 07:58:54;;;;;;;5.93;1.75;;;;;;;32.75;30.45;101681.31;5240980;28;20468;-50
2022/06/20 08:01:36;;;;;;;8.02;1.45;;;;;;;32.94;30.12;101669.75;5250003;28;20418;-54
2022/06/20 08:04:12;;;;;;;8.82;1.98;;;;;;;33.11;29.94;101674.88;5252202;28;21156;-54
2022/06/20 08:06:51;;;;;;;4.72;1.42;;;;;;;33.14;29.89;101674.31;5250106;28;20463;-56
2022/06/20 08:09:32;;;;;;;8.85;1.98;;;;;;;32.62;29.97;101667.41;5238133;28;20447;-58
2022/06/20 08:12:15;;;;;;;5.10;1.88;;;;;;;31.74;30.69;101674.81;5247188;28;20747;-54
2022/06/20 08:14:53;;;;;;;4.82;1.50;;;;;;;30.95;31.10;101689.59;5249374;28;20409;-50
2022/06/20 08:17:29;;;;;;;6.13;1.93;;;;;;;30.27;31.14;101695.69;5242978;28;21001;-52
2022/06/20 08:20:02;;;;;;;10.05;1.98;;;;;;;29.54;31.54;101688.97;5241017;28;20409;-51
2022/06/20 08:22:41;;;;;;;6.47;1.77;;;;;;;29.04;31.90;101684.59;5246884;28;20425;-51
2022/06/20 08:25:21;;;;;;;6.82;1.88;;;;;;;28.84;32.07;101696.00;5245396;28;20436;-54
2022/06/20 08:27:59;;;;;;;8.43;1.90;;;;;;;28.90;31.82;101676.78;5241839;28;20770;-53
2022/06/20 08:30:37;;;;;;;5.27;1.57;;;;;;;28.90;31.64;101703.97;5245422;28;20405;-52
2022/06/20 08:33:17;;;;;;;5.20;1.50;;;;;;;28.80;31.55;101703.81;5250558;28;20922;-48
2022/06/20 08:35:55;;;;;;;6.72;2.25;;;;;;;28.82;31.54;101707.13;5251572;28;20399;-54
2022/06/20 08:38:34;;;;;;;5.53;1.50;;;;;;;28.87;31.44;101707.19;5247620;28;20537;-50
2022/06/20 08:41:51;;;;;;;7.13;1.80;;;;;;;29.05;31.23;101710.72;5250407;28;20840;-48
2022/06/20 08:45:17;;;;;;;7.75;2.25;;;;;;;28.82;31.40;101712.56;5228308;28;20502;-52
2022/06/20 08:48:28;;;;;;;6.75;2.58;;;;;;;28.43;31.63;101709.00;5248505;28;20405;-51
2022/06/20 08:51:42;;;;;;;9.00;2.08;;;;;;;28.17;31.69;101711.28;5240763;28;20896;-52
2022/06/20 08:54:40;;;;;;;8.63;1.85;;;;;;;27.91;31.74;101709.22;5236970;28;20850;-40
2022/06/20 08:57:17;;;;;;;7.13;1.98;;;;;;;27.79;31.80;101717.41;5243972;28;20414;-40
2022/06/20 09:00:06;;;;;;;5.37;1.90;;;;;;;27.76;31.46;101709.72;5245841;28;20819;-41
2022/06/20 09:03:05;;;;;;;7.50;1.65;;;;;;;27.66;31.61;101720.38;5242044;28;20487;-41
2022/06/20 09:06:15;;;;;;;5.50;2.00;;;;;;;27.67;31.57;101716.59;5238312;28;20402;-42
2022/06/20 09:09:18;;;;;;;6.75;1.65;;;;;;;27.67;31.30;101714.69;5242496;28;20482;-42
2022/06/20 09:12:08;;;;;;;7.20;1.80;;;;;;;27.51;31.27;101718.19;5232309;28;20487;-41
2022/06/20 09:15:20;;;;;;;6.20;1.73;;;;;;;27.52;31.34;101725.25;5241624;28;20420;-41
2022/06/20 09:17:59;;;;;;;6.53;2.20;;;;;;;27.41;31.14;101705.25;5234035;28;20489;-42
2022/06/20 09:20:39;;;;;;;6.63;2.05;;;;;;;27.55;31.12;101730.22;5235320;28;20854;-42
2022/06/20 09:23:29;;;;;;;6.43;1.88;;;;;;;27.24;31.26;101729.59;5242096;28;20883;-42
2022/06/20 09:26:09;;;;;;;5.07;1.80;;;;;;;26.99;31.15;101737.97;5236697;28;20836;-42
2022/06/20 09:29:11;;;;;;;6.83;1.60;;;;;;;26.87;31.31;101734.44;5243628;28;20422;-41
2022/06/20 09:32:10;;;;;;;5.67;1.80;;;;;;;26.98;31.15;101740.94;5241164;28;20992;-43
2022/06/20 09:35:07;;;;;;;5.50;1.80;;;;;;;26.94;31.07;101745.16;5238099;28;20413;-41
2022/06/20 09:38:07;;;;;;;5.60;1.75;;;;;;;26.98;31.00;101741.75;5242932;28;20418;-45
2022/06/20 09:40:45;;;;;;;5.68;1.80;;;;;;;26.95;30.82;101742.22;5242181;28;20410;-40
2022/06/20 09:43:30;;;;;;;7.70;2.28;;;;;;;26.47;31.27;101745.94;5234108;28;20430;-41
2022/06/20 09:46:14;;;;;;;7.45;2.28;;;;;;;26.21;31.58;101739.91;5239609;28;20412;-41
2022/06/20 09:48:56;;;;;;;8.00;2.13;;;;;;;25.92;31.82;101746.16;5245085;28;21013;-42
2022/06/20 09:51:40;;;;;;;8.18;2.55;;;;;;;25.71;31.92;101734.78;5245711;28;20497;-42
2022/06/20 09:54:30;;;;;;;8.75;1.88;;;;;;;25.80;31.96;101739.84;5250118;28;20421;-42
2022/06/20 09:57:13;;;;;;;10.18;2.25;;;;;;;25.90;31.85;101734.75;5241477;28;20402;-45
2022/06/20 09:59:54;;;;;;;10.90;2.30;;;;;;;26.13;31.70;101737.53;5238990;28;20416;-40
2022/06/20 10:02:48;;;;;;;6.78;1.65;;;;;;;26.19;31.79;101742.00;5237839;28;20414;-42
2022/06/20 10:05:32;;;;;;;6.30;2.17;;;;;;;25.82;31.67;101680.97;5239296;28;20505;-42
2022/06/20 10:08:19;;;;;;;8.75;1.92;;;;;;;26.34;31.64;101754.28;5237631;28;20408;-41
2022/06/20 10:10:59;;;;;;;10.32;2.67;;;;;;;26.19;31.79;101755.53;5236830;28;20495;-41
2022/06/20 10:13:39;;;;;;;7.32;2.17;;;;;;;26.16;32.00;101756.00;5234765;28;20405;-40
2022/06/20 10:16:20;;;;;;;6.27;2.20;;;;;;;26.02;32.01;101749.16;5240521;28;20457;-41
2022/06/20 10:19:02;;;;;;;9.98;2.33;;;;;;;25.70;32.15;101735.81;5237417;28;20499;-41
2022/06/20 10:21:42;;;;;;;12.85;2.72;;;;;;;25.67;32.22;101752.50;5234139;28;20522;-40
2022/06/20 10:24:43;;;;;;;9.82;2.15;;;;;;;25.90;32.17;101769.94;5240501;28;20498;-41
2022/06/20 10:27:49;;;;;;;11.00;2.67;;;;;;;25.76;32.24;101778.19;5238908;28;20493;-41
2022/06/20 10:30:36;;;;;;;8.20;2.58;;;;;;;25.54;32.54;101779.72;5241147;28;20594;-41
2022/06/20 10:33:38;;;;;;;7.13;2.28;;;;;;;25.40;32.59;101772.84;5238580;28;20517;-42
2022/06/20 10:36:48;;;;;;;9.90;2.13;;;;;;;25.40;32.67;101772.84;5239376;28;20414;-40
2022/06/20 10:39:34;;;;;;;10.10;2.50;;;;;;;25.36;32.85;101782.44;5221111;28;20479;-40
2022/06/20 10:42:24;;;;;;;10.70;2.97;;;;;;;25.53;32.71;101775.38;5241178;28;20428;-40
2022/06/20 10:45:31;;;;;;;15.15;3.45;;;;;;;25.56;32.59;101780.34;5238108;28;20769;-41
2022/06/20 10:48:38;;;;;;;13.97;3.33;;;;;;;25.54;32.73;101780.53;5235894;28;20854;-41
2022/06/20 10:51:20;;;;;;;9.82;2.30;;;;;;;25.42;32.94;101774.25;5237787;28;20424;-41
2022/06/20 10:54:07;;;;;;;7.43;2.42;;;;;;;25.62;32.85;101776.72;5238912;28;20477;-43
2022/06/20 10:56:48;;;;;;;8.90;2.58;;;;;;;25.77;32.60;101779.84;5236768;28;20425;-40
2022/06/20 10:59:37;;;;;;;10.43;2.92;;;;;;;25.91;32.25;101775.13;5236829;28;20494;-41
2022/06/20 11:02:50;;;;;;;8.77;2.30;;;;;;;26.10;32.39;101783.19;5236381;28;20438;-42
2022/06/20 11:05:34;;;;;;;8.48;2.60;;;;;;;26.32;32.24;101775.34;5235441;28;20469;-41
2022/06/20 11:08:24;;;;;;;7.75;2.20;;;;;;;26.43;32.27;101777.28;5224333;28;20876;-41
2022/06/20 11:11:14;;;;;;;10.57;3.25;;;;;;;26.26;32.39;101770.88;5237362;28;20438;-43
2022/06/20 11:13:52;;;;;;;11.23;3.22;;;;;;;26.33;32.36;101777.03;5237266;28;20911;-41
2022/06/20 11:16:35;;;;;;;14.68;2.90;;;;;;;26.48;32.25;101777.41;5237630;28;20519;-44
2022/06/20 11:19:24;;;;;;;11.15;2.30;;;;;;;26.51;32.25;101774.28;5236683;28;20444;-41
2022/06/20 11:22:15;;;;;;;9.73;2.80;;;;;;;26.38;32.44;101774.44;5236860;28;20876;-41
2022/06/20 11:24:56;;;;;;;9.93;2.63;;;;;;;26.46;32.36;101782.22;5231868;28;20501;-41
2022/06/20 11:27:44;;;;;;;10.32;2.53;;;;;;;26.50;32.41;101785.31;5233263;28;20428;-43
2022/06/20 11:30:22;;;;;;;10.63;2.50;;;;;;;26.43;32.46;101778.09;5235232;28;20476;-40
2022/06/20 11:33:09;;;;;;;8.35;2.63;;;;;;;26.48;32.37;101772.00;5228177;28;20793;-41
2022/06/20 11:35:50;;;;;;;12.32;2.72;;;;;;;26.33;32.36;101771.63;5234401;28;20425;-40
2022/06/20 11:38:52;;;;;;;8.10;2.95;;;;;;;26.28;32.53;101791.25;5237741;28;20439;-42
2022/06/20 11:41:33;;;;;;;8.82;2.22;;;;;;;26.24;32.76;101779.25;5238476;28;20551;-40
2022/06/20 11:44:38;;;;;;;7.72;1.52;;;;;;;26.25;32.46;101796.31;5233599;28;20447;-40
2022/06/20 11:47:51;;;;;;;6.53;2.10;;;;;;;26.27;32.35;101786.09;5230920;28;20410;-41
2022/06/20 11:50:35;;;;;;;7.90;2.05;;;;;;;26.06;32.39;101780.13;5234925;28;20451;-41
2022/06/20 11:53:25;;;;;;;6.25;1.90;;;;;;;25.86;32.59;101793.09;5233564;28;20412;-48
2022/06/20 11:56:09;;;;;;;9.02;2.08;;;;;;;26.00;32.47;101778.31;5237063;28;20538;-45
2022/06/20 11:59:08;;;;;;;5.82;1.90;;;;;;;25.84;32.43;101773.56;5234561;28;20420;-43
2022/06/20 12:01:47;;;;;;;5.22;1.60;;;;;;;25.87;32.72;101783.94;5233624;28;20468;-40
2022/06/20 12:04:29;;;;;;;4.65;1.60;;;;;;;26.18;32.58;101797.22;5231684;28;20423;-41
2022/06/20 12:07:08;;;;;;;6.50;1.83;;;;;;;26.45;32.19;101802.25;5212302;28;20808;-40
2022/06/20 12:09:47;;;;;;;8.57;1.75;;;;;;;26.66;32.18;101793.63;5208464;28;20496;-41
2022/06/20 12:12:40;;;;;;;5.20;1.67;;;;;;;26.98;31.96;101801.41;5214635;28;20951;-40
2022/06/20 12:15:42;;;;;;;4.88;1.70;;;;;;;27.08;32.12;101801.63;5211768;28;20561;-41
2022/06/20 12:23:18;;;;;;;3.67;1.50;;;;;;;27.07;32.10;101810.00;5208826;28;20478;-40
2022/06/20 12:24:28;;;;;;;4.63;1.42;;;;;;;26.96;32.05;101806.22;5195045;28;20931;-43
2022/06/20 12:27:00;;;;;;;5.93;2.00;;;;;;;27.15;31.88;101809.66;5209649;28;20413;-41
2022/06/20 12:29:36;;;;;;;4.95;1.20;;;;;;;27.09;31.97;101814.09;5212648;28;20424;-41
2022/06/20 12:32:17;;;;;;;5.70;1.60;;;;;;;27.10;32.01;101809.53;5213402;28;20413;-41
2022/06/20 12:34:57;;;;;;;5.97;1.80;;;;;;;26.94;31.91;101783.94;5213571;28;20410;-46
2022/06/20 12:37:37;;;;;;;5.32;1.42;;;;;;;26.62;32.10;101792.41;5210037;28;21229;-41
2022/06/20 12:40:23;;;;;;;4.82;1.55;;;;;;;26.54;32.36;101806.31;5212629;28;20433;-40